createdAt,value
2022-07-30T00:02:31.020Z,17.20
2022-07-30T00:07:24.578Z,17.10
2022-07-30T00:12:18.164Z,17.10
2022-07-30T00:17:11.873Z,17.00
2022-07-30T00:22:06.759Z,16.90
2022-07-30T00:27:00.441Z,16.90
2022-07-30T00:36:54.575Z,16.80
2022-07-30T00:42:02.130Z,16.80
2022-07-30T00:46:56.134Z,16.70
2022-07-30T00:51:49.835Z,16.90
2022-07-30T00:56:44.045Z,16.90
2022-07-30T01:01:38.864Z,16.90
2022-07-30T01:06:32.419Z,17.00
2022-07-30T01:11:35.402Z,16.90
2022-07-30T01:16:29.650Z,17.00
2022-07-30T01:21:36.187Z,16.70
2022-07-30T01:26:32.938Z,16.70
2022-07-30T01:31:28.963Z,16.60
2022-07-30T01:36:24.586Z,16.60
2022-07-30T01:41:21.212Z,16.70
2022-07-30T01:46:18.718Z,16.70
2022-07-30T01:51:14.549Z,16.70
2022-07-30T01:56:12.986Z,16.50
2022-07-30T02:01:10.336Z,16.60
2022-07-30T02:06:12.093Z,16.80
2022-07-30T02:11:10.478Z,16.90
2022-07-30T02:16:16.367Z,17.00
2022-07-30T02:26:16.316Z,17.00
2022-07-30T02:31:17.706Z,17.20
2022-07-30T02:36:13.674Z,17.20
2022-07-30T02:41:13.401Z,17.30
2022-07-30T02:46:10.907Z,17.30
2022-07-30T02:51:06.409Z,17.30
2022-07-30T02:56:03.129Z,17.30
2022-07-30T03:00:59.858Z,17.20
2022-07-30T03:05:54.876Z,17.20
2022-07-30T03:10:50.187Z,17.20
2022-07-30T03:15:49.009Z,17.20
2022-07-30T03:20:47.224Z,17.30
2022-07-30T03:30:53.695Z,17.10
2022-07-30T03:35:49.342Z,17.00
2022-07-30T03:40:44.360Z,16.90
2022-07-30T03:50:44.396Z,16.80
2022-07-30T03:55:38.676Z,16.90
2022-07-30T04:00:32.091Z,16.80
2022-07-30T04:05:25.564Z,16.80
2022-07-30T04:10:20.353Z,16.80
2022-07-30T04:16:38.014Z,16.80
2022-07-30T04:20:37.961Z,16.80
2022-07-30T04:25:35.026Z,16.70
2022-07-30T04:30:29.585Z,16.70
2022-07-30T04:35:50.921Z,16.60
2022-07-30T04:40:44.109Z,16.70
2022-07-30T04:45:37.540Z,16.80
2022-07-30T04:50:36.173Z,16.90
2022-07-30T04:55:30.128Z,17.00
2022-07-30T05:00:25.124Z,17.10
2022-07-30T05:05:20.278Z,17.30
2022-07-30T05:10:14.609Z,17.60
2022-07-30T05:15:10.776Z,17.80
2022-07-30T05:20:07.284Z,18.10
2022-07-30T05:25:01.009Z,18.10
2022-07-30T05:29:55.466Z,18.30
2022-07-30T05:34:50.032Z,18.40
2022-07-30T05:40:00.502Z,18.60
2022-07-30T05:44:56.459Z,18.70
2022-07-30T05:49:50.085Z,18.80
2022-07-30T05:54:45.047Z,18.70
2022-07-30T05:59:38.473Z,18.70
2022-07-30T06:04:33.182Z,18.80
2022-07-30T06:09:36.801Z,18.90
2022-07-30T06:14:32.750Z,18.80
2022-07-30T06:19:26.257Z,18.70
2022-07-30T06:24:19.714Z,18.70
2022-07-30T06:29:16.337Z,18.80
2022-07-30T06:34:11.112Z,18.80
2022-07-30T06:39:05.074Z,18.90
2022-07-30T06:43:58.451Z,19.00
2022-07-30T06:48:51.875Z,19.10
2022-07-30T06:53:46.878Z,19.30
2022-07-30T06:58:40.678Z,19.40
2022-07-30T07:03:39.555Z,19.30
2022-07-30T07:13:36.019Z,19.40
2022-07-30T07:18:29.446Z,19.60
2022-07-30T07:28:23.356Z,20.00
2022-07-30T07:33:28.129Z,20.20
2022-07-30T07:38:21.573Z,20.50
2022-07-30T07:43:15.970Z,20.80
2022-07-30T07:48:09.571Z,21.00
2022-07-30T07:53:04.267Z,21.10
2022-07-30T07:57:57.836Z,21.30
2022-07-30T08:02:51.376Z,21.60
2022-07-30T08:12:56.921Z,21.80
2022-07-30T08:17:50.716Z,21.80
2022-07-30T08:22:44.701Z,22.10
2022-07-30T08:27:38.559Z,22.30
2022-07-30T08:32:44.757Z,22.50
2022-07-30T08:37:40.983Z,22.70
2022-07-30T08:42:36.689Z,22.80
2022-07-30T08:57:52.883Z,23.50
2022-07-30T09:07:56.717Z,23.60
2022-07-30T09:18:06.391Z,23.90
2022-07-30T09:23:02.782Z,24.00
2022-07-30T09:27:56.135Z,24.10
2022-07-30T09:32:52.642Z,24.30
2022-07-30T09:37:48.073Z,24.30
2022-07-30T09:47:56.954Z,24.40
2022-07-30T09:52:54.066Z,24.50
2022-07-30T09:57:58.703Z,24.70
2022-07-30T10:08:09.318Z,24.80
2022-07-30T10:23:35.842Z,25.50
2022-07-30T10:28:39.348Z,25.10
2022-07-30T10:33:36.664Z,24.90
2022-07-30T10:38:41.382Z,25.30
2022-07-30T10:48:36.904Z,24.90
2022-07-30T10:59:03.031Z,25.50
2022-07-30T11:04:29.755Z,25.70
2022-07-30T11:15:07.090Z,26.10
2022-07-30T11:20:13.280Z,26.20
2022-07-30T11:25:12.619Z,25.70
2022-07-30T11:30:38.938Z,24.90
2022-07-30T11:41:12.935Z,25.50
2022-07-30T11:46:10.772Z,25.80
2022-07-30T11:51:05.619Z,25.90
2022-07-30T12:01:19.567Z,25.10
2022-07-30T12:06:19.964Z,24.90
2022-07-30T12:11:14.219Z,25.30
2022-07-30T12:16:10.556Z,25.30
2022-07-30T12:21:08.412Z,25.00
2022-07-30T12:26:01.871Z,24.90
2022-07-30T12:30:57.616Z,25.30
2022-07-30T12:35:53.836Z,25.60
2022-07-30T12:40:59.490Z,25.80
2022-07-30T12:46:00.540Z,26.10
2022-07-30T12:51:07.274Z,26.40
2022-07-30T12:56:14.304Z,26.40
2022-07-30T13:01:12.901Z,26.30
2022-07-30T13:06:15.450Z,26.10
2022-07-30T13:11:08.891Z,25.90
2022-07-30T13:16:06.740Z,25.80
2022-07-30T13:21:01.457Z,25.60
2022-07-30T13:47:02.089Z,24.80
2022-07-30T13:51:55.654Z,25.00
2022-07-30T13:56:49.164Z,24.90
2022-07-30T14:01:43.115Z,25.00
2022-07-30T14:07:10.089Z,25.40
2022-07-30T14:12:03.439Z,25.60
2022-07-30T14:16:57.383Z,25.90
2022-07-30T14:21:52.988Z,26.10
2022-07-30T14:26:46.475Z,26.10
2022-07-30T14:31:40.664Z,26.00
2022-07-30T14:36:34.988Z,25.80
2022-07-30T14:41:32.989Z,25.70
2022-07-30T14:46:36.828Z,25.60
2022-07-30T14:51:45.516Z,25.80
2022-07-30T14:56:40.304Z,26.00
2022-07-30T15:01:33.668Z,25.70
2022-07-30T15:06:27.098Z,25.50
2022-07-30T15:11:22.002Z,25.40
2022-07-30T15:16:17.493Z,25.30
2022-07-30T15:26:11.581Z,25.10
2022-07-30T15:36:17.064Z,24.80
2022-07-30T15:46:20.617Z,24.70
2022-07-30T15:51:18.851Z,24.80
2022-07-30T15:56:14.601Z,25.10
2022-07-30T16:01:08.730Z,25.40
2022-07-30T16:11:14.093Z,25.20
2022-07-30T16:16:07.425Z,24.90
2022-07-30T16:26:13.101Z,24.50
2022-07-30T16:31:06.783Z,24.50
2022-07-30T16:51:35.763Z,24.00
2022-07-30T17:01:46.047Z,23.70
2022-07-30T17:06:41.160Z,23.70
2022-07-30T17:21:56.838Z,23.50
2022-07-30T17:26:50.266Z,23.70
2022-07-30T17:31:45.630Z,23.80
2022-07-30T17:36:40.598Z,23.90
2022-07-30T17:41:35.385Z,24.00
2022-07-30T17:46:48.718Z,23.90
2022-07-30T17:51:44.354Z,23.80
2022-07-30T17:56:39.744Z,23.90
2022-07-30T18:01:33.743Z,23.90
2022-07-30T18:12:20.620Z,23.80
2022-07-30T18:42:50.320Z,22.80
2022-07-30T19:08:27.671Z,22.50
2022-07-30T19:13:23.442Z,22.50
2022-07-30T19:18:21.435Z,22.40
2022-07-30T21:02:00.012Z,21.10
2022-07-30T21:06:53.714Z,21.00
2022-07-30T21:11:50.721Z,20.90
2022-07-30T21:16:56.137Z,20.80
2022-07-30T21:22:09.031Z,20.80
2022-07-30T21:27:02.386Z,20.80
2022-07-30T21:32:03.139Z,20.70
2022-07-30T21:37:02.239Z,20.60
2022-07-30T21:41:57.970Z,20.50
2022-07-30T21:57:13.667Z,20.40
2022-07-30T22:02:15.828Z,20.40
2022-07-30T22:07:12.374Z,20.30
2022-07-30T22:12:09.811Z,20.30
2022-07-30T22:17:22.563Z,20.30
2022-07-30T22:22:26.757Z,20.30
2022-07-30T22:27:22.014Z,20.20
2022-07-30T22:32:16.866Z,19.90
2022-07-30T22:37:13.739Z,19.90
2022-07-30T22:42:12.725Z,19.90
2022-07-30T22:47:15.677Z,19.90
2022-07-30T22:52:19.805Z,19.90
2022-07-30T22:57:15.978Z,19.80
2022-07-30T23:02:16.501Z,19.60
2022-07-30T23:07:13.889Z,19.40
2022-07-30T23:12:13.679Z,19.40
2022-07-30T23:17:08.040Z,19.40
2022-07-30T23:22:01.422Z,19.40
2022-07-30T23:26:54.813Z,19.20
2022-07-30T23:31:49.564Z,19.30
2022-07-30T23:36:42.949Z,19.30
2022-07-30T23:41:36.453Z,19.30
2022-07-30T23:46:29.918Z,19.20
2022-07-30T23:51:24.679Z,19.30
2022-07-30T23:56:18.648Z,19.10
